createdAt,value
2022-08-30T00:01:55.022Z,15.1
2022-08-30T00:03:58.912Z,14.1
2022-08-30T00:06:02.702Z,10
2022-08-30T00:08:06.629Z,9.8
2022-08-30T00:10:10.404Z,9.4
2022-08-30T00:12:17.582Z,17.4
2022-08-30T00:18:29.134Z,12.2
2022-08-30T00:20:32.997Z,11.3
2022-08-30T00:24:40.704Z,11.1
2022-08-30T00:31:59.094Z,14.6
2022-08-30T00:38:10.731Z,11.3
2022-08-30T00:40:19.524Z,15.7
2022-08-30T00:42:23.241Z,12.6
2022-08-30T00:46:31.011Z,12.5
2022-08-30T00:48:34.810Z,11.5
2022-08-30T00:50:38.631Z,14.5
2022-08-30T00:52:42.522Z,12.6
2022-08-30T00:54:49.651Z,14.9
2022-08-30T00:56:53.500Z,21.1
2022-08-30T01:01:01.263Z,12.6
2022-08-30T01:05:08.918Z,11.2
2022-08-30T01:09:19.872Z,19.6
2022-08-30T01:11:23.751Z,16.4
2022-08-30T01:13:27.585Z,16.4
2022-08-30T01:15:31.474Z,15.5
2022-08-30T01:17:35.269Z,14.8
2022-08-30T01:19:39.114Z,14.8
2022-08-30T01:21:42.988Z,13
2022-08-30T01:23:50.132Z,15.8
2022-08-30T01:25:53.963Z,15.9
2022-08-30T01:27:57.843Z,15.4
2022-08-30T01:31:05.294Z,18.6
2022-08-30T01:33:09.188Z,17.7
2022-08-30T01:35:12.956Z,15.5
2022-08-30T01:37:20.106Z,22.3
2022-08-30T01:39:23.944Z,19.7
2022-08-30T01:41:27.804Z,17.5
2022-08-30T01:43:31.653Z,16.8
2022-08-30T01:45:35.600Z,12.4
2022-08-30T01:49:43.210Z,15.1
2022-08-30T01:51:50.318Z,15.5
2022-08-30T02:02:09.539Z,23.6
2022-08-30T02:04:13.460Z,19.7
2022-08-30T02:06:20.506Z,20.2
2022-08-30T02:08:24.388Z,18.8
2022-08-30T02:10:28.205Z,17.9
2022-08-30T02:12:32.148Z,18.8
2022-08-30T02:14:35.908Z,21.4
2022-08-30T02:16:39.855Z,21
2022-08-30T02:18:43.615Z,26.8
2022-08-30T02:20:50.762Z,20.1
2022-08-30T02:22:56.689Z,18.5
2022-08-30T02:24:58.498Z,18.1
2022-08-30T02:27:22.632Z,20.9
2022-08-30T02:29:26.498Z,21.8
2022-08-30T02:31:30.383Z,18.9
2022-08-30T02:37:46.589Z,19.6
2022-08-30T02:39:49.079Z,19.1
2022-08-30T02:50:11.628Z,21.4
2022-08-30T02:56:23.207Z,28.8
2022-08-30T02:58:27.039Z,21.8
2022-08-30T03:00:30.896Z,31
2022-08-30T03:02:38.036Z,22.8
2022-08-30T03:04:41.918Z,24.2
2022-08-30T03:06:45.774Z,22.5
2022-08-30T03:08:49.647Z,21.5
2022-08-30T03:10:53.506Z,19.6
2022-08-30T03:12:57.393Z,21.1
2022-08-30T03:15:01.237Z,23
2022-08-30T03:17:15.422Z,27.4
2022-08-30T03:19:12.237Z,23.5
2022-08-30T03:21:16.084Z,23.2
2022-08-30T03:22:19.664Z,23.2
2022-08-30T03:24:23.537Z,27.6
2022-08-30T03:26:27.375Z,22.1
2022-08-30T03:28:31.243Z,23.9
2022-08-30T03:30:38.360Z,25.8
2022-08-30T03:32:43.199Z,24.3
2022-08-30T03:36:49.943Z,30
2022-08-30T03:38:53.790Z,26.3
2022-08-30T03:40:57.672Z,28.3
2022-08-30T03:43:01.526Z,26.7
2022-08-30T03:45:08.678Z,25.5
2022-08-30T03:47:12.535Z,31
2022-08-30T03:49:16.416Z,23.2
2022-08-30T03:51:20.264Z,27.3
2022-08-30T03:53:27.041Z,23.3
2022-08-30T03:55:28.003Z,23.5
2022-08-30T03:57:31.874Z,30
2022-08-30T03:59:39.024Z,25.9
2022-08-30T04:01:42.900Z,29.4
2022-08-30T04:03:46.764Z,29.7
2022-08-30T04:05:50.674Z,27.1
2022-08-30T04:07:54.637Z,30.7
2022-08-30T04:09:58.335Z,27.9
2022-08-30T04:12:02.201Z,29.5
2022-08-30T04:14:09.309Z,35.8
2022-08-30T04:16:13.210Z,26.4
2022-08-30T04:18:17.030Z,28.1
2022-08-30T04:19:20.619Z,32.4
2022-08-30T04:25:32.182Z,25.5
2022-08-30T04:27:39.335Z,31.2
2022-08-30T04:29:43.179Z,24.2
2022-08-30T04:31:47.105Z,31.5
2022-08-30T04:33:50.953Z,24.1
2022-08-30T04:35:54.936Z,25
2022-08-30T04:37:58.627Z,30.2
2022-08-30T04:40:02.563Z,26.1
2022-08-30T04:42:09.642Z,31.7
2022-08-30T04:44:14.140Z,24.7
2022-08-30T04:48:21.383Z,26.9
2022-08-30T04:56:39.950Z,31.1
2022-08-30T04:58:43.847Z,31.7
2022-08-30T05:06:59.274Z,33.7
2022-08-30T05:09:03.119Z,31.3
2022-08-30T05:11:10.285Z,33
2022-08-30T05:13:14.128Z,35.6
2022-08-30T05:16:21.706Z,30.7
2022-08-30T05:18:25.489Z,27.8
2022-08-30T05:20:29.354Z,31.6
2022-08-30T05:22:33.206Z,36.5
2022-08-30T05:24:40.329Z,37.8
2022-08-30T05:26:44.242Z,28.7
2022-08-30T05:30:51.952Z,35.4
2022-08-30T05:32:55.826Z,29.7
2022-08-30T05:34:59.688Z,30.5
2022-08-30T05:37:03.547Z,33
2022-08-30T18:44:27.805Z,4.1
2022-08-30T18:48:23.432Z,3.1
2022-08-30T18:50:47.898Z,3.6
2022-08-30T18:54:55.490Z,5.2
2022-08-30T18:59:08.099Z,4.6
2022-08-30T19:01:10.284Z,4
2022-08-30T19:03:13.985Z,3.9
2022-08-30T19:05:17.779Z,4.5
2022-08-30T19:07:21.603Z,4
2022-08-30T19:09:26.574Z,4.1
2022-08-30T19:13:36.307Z,4.3
2022-08-30T19:15:40.105Z,4.3
2022-08-30T19:17:43.892Z,4.6
2022-08-30T19:23:55.418Z,4.3
2022-08-30T19:26:02.758Z,4.7
2022-08-30T19:28:06.263Z,5.8
2022-08-30T19:30:10.121Z,4
2022-08-30T19:32:13.878Z,4.4
2022-08-30T19:34:17.697Z,5.3
2022-08-30T19:36:21.532Z,5.1
2022-08-30T19:38:25.321Z,4.9
2022-08-30T19:42:38.493Z,4.7
2022-08-30T19:44:40.041Z,5.3
2022-08-30T19:45:43.605Z,5.4
2022-08-30T19:47:47.424Z,5.3
2022-08-30T19:49:51.256Z,4.8
2022-08-30T19:51:55.083Z,5.5
2022-08-30T19:56:06.016Z,5.1
2022-08-30T20:00:16.711Z,5.3
2022-08-30T20:02:17.532Z,8.4
2022-08-30T20:06:25.111Z,4.5
2022-08-30T20:14:43.896Z,4.3
2022-08-30T20:16:47.562Z,4.3
2022-08-30T20:18:51.453Z,4.3
2022-08-30T20:20:55.184Z,4
2022-08-30T20:23:02.289Z,4.6
2022-08-30T20:25:06.173Z,4.4
2022-08-30T20:27:09.941Z,4
2022-08-30T20:29:13.811Z,4.2
2022-08-30T20:31:17.733Z,5.6
2022-08-30T20:33:21.449Z,4.5
2022-08-30T20:35:25.261Z,5
2022-08-30T20:37:32.381Z,5.7
2022-08-30T20:39:36.187Z,4.4
2022-08-30T20:42:43.607Z,4.6
2022-08-30T20:44:47.429Z,4.3
2022-08-30T20:46:51.245Z,4.9
2022-08-30T20:48:55.140Z,4.5
2022-08-30T20:51:02.270Z,5.1
2022-08-30T20:53:06.041Z,5.1
2022-08-30T20:55:09.839Z,9
2022-08-30T20:57:13.701Z,4.9
2022-08-30T20:59:17.525Z,4.3
2022-08-30T21:01:21.415Z,4.4
2022-08-30T21:03:26.010Z,4
2022-08-30T21:05:32.320Z,7.2
2022-08-30T21:07:36.178Z,5.3
2022-08-30T21:09:40.023Z,4
2022-08-30T21:11:44.811Z,4.4
2022-08-30T21:13:47.653Z,7.5
2022-08-30T21:15:51.483Z,4.5
2022-08-30T21:17:55.350Z,4.5
2022-08-30T21:20:02.697Z,5.9
2022-08-30T21:22:06.316Z,3.8
2022-08-30T21:24:04.340Z,3.8
2022-08-30T21:26:08.123Z,5.2
2022-08-30T21:28:11.976Z,4
2022-08-30T21:30:15.949Z,4.7
2022-08-30T21:32:19.648Z,4
2022-08-30T21:34:26.786Z,4.3
2022-08-30T21:38:34.448Z,3.9
2022-08-30T21:39:38.010Z,4.2
2022-08-30T21:41:41.876Z,4.8
2022-08-30T21:43:45.721Z,4
2022-08-30T21:45:49.638Z,4.4
2022-08-30T21:47:56.668Z,7.3
2022-08-30T21:50:00.520Z,4.6
2022-08-30T21:52:04.348Z,7.8
2022-08-30T21:54:08.199Z,4.5
2022-08-30T21:56:13.524Z,7.5
2022-08-30T21:58:15.876Z,6.5
2022-08-30T22:00:19.829Z,7.8
2022-08-30T22:02:26.858Z,6.6
2022-08-30T22:04:30.709Z,9.6
2022-08-30T22:06:34.523Z,4.3
2022-08-30T22:08:38.362Z,4.9
2022-08-30T22:10:42.216Z,6.5
2022-08-30T22:12:46.047Z,3.9
2022-08-30T22:21:04.724Z,4
2022-08-30T22:31:27.254Z,4.3
2022-08-30T22:33:31.073Z,4.4
2022-08-30T22:35:34.917Z,4
2022-08-30T22:37:59.999Z,4.3
2022-08-30T22:40:03.911Z,4.1
2022-08-30T22:42:07.706Z,4
2022-08-30T22:44:14.855Z,4.6
2022-08-30T22:46:18.781Z,4.2
2022-08-30T22:50:26.408Z,5.6
2022-08-30T22:54:34.087Z,4.8
2022-08-30T22:58:45.103Z,4.3
2022-08-30T23:00:55.008Z,5.3
2022-08-30T23:07:00.457Z,11.9
2022-08-30T23:17:23.025Z,5
2022-08-30T23:19:26.869Z,4.6
2022-08-30T23:23:34.593Z,3.9
2022-08-30T23:25:41.664Z,4
2022-08-30T23:27:45.590Z,4
2022-08-30T23:29:49.442Z,4.4
2022-08-30T23:32:56.846Z,4.8
2022-08-30T23:35:00.833Z,4
2022-08-30T23:37:04.590Z,7.8
2022-08-30T23:39:08.410Z,4.2
2022-08-30T23:41:15.511Z,4.3
2022-08-30T23:43:19.537Z,6.1
2022-08-30T23:45:23.262Z,4
2022-08-30T23:47:27.078Z,4.2
2022-08-30T23:49:30.909Z,5.6
2022-08-30T23:51:34.747Z,5.4
2022-08-30T23:53:38.576Z,4.2
2022-08-30T23:55:45.695Z,4
2022-08-30T23:57:49.555Z,4.5
2022-08-30T23:59:53.411Z,4.1
